Alexandra — WDD5677 — position and weather

sailwx.info

Track history (hours):
 
Tides and Currents Weather Stations Pressure Air Temp Water Temp Dewpoint Dewpoint Depression Visibility Wind Speed Wind Dir Waves Ship Positions

Alexandra

Owner: Weeks Marine, Inc., Cranford, NJ. More information available from US FCC via Universal Licensing System and Coast Guard Vessel Documentation Center.

Last reported at 2016-Dec-06 13:33 UTC. Time now 2016-Dec-06 14:15 UTC.
Position N 40°32' W 074°02'.

Length 37 m; draft 5 m.

Type: Tug. MMSI: 367161950.

Date/timePositionNaut miles runAvg speedWind from/ knotsBaromVisibWave heightAir tempDewpointWater temp
2016-Dec-06 13:33N 40°32' W 074°02'4 4.1
2016-Dec-06 12:31N 40°28' W 074°02'0 0.4
2016-Dec-06 11:33N 40°28' W 074°01'0 0.0
2016-Dec-06 10:31N 40°28' W 074°01'0 0.0
2016-Dec-06 09:33N 40°28' W 074°01'0 0.0
2016-Dec-06 08:33N 40°28' W 074°01'0 0.0
2016-Dec-06 07:33N 40°28' W 074°01'0 0.0
2016-Dec-06 05:04N 40°28' W 074°01'3 4.4
2016-Dec-06 04:26N 40°31' W 074°03'9 9.7
2016-Dec-06 03:33N 40°40' W 074°01'0 0.4
2016-Dec-06 02:33N 40°39' W 074°02'6 6.3
2016-Dec-06 01:33N 40°33' W 074°01'6 3.0
2016-Dec-05 23:27N 40°29' W 073°55'0 0.3
2016-Dec-05 21:32N 40°29' W 073°54'1 0.9
2016-Dec-05 20:27N 40°30' W 073°55'3 3.1
2016-Dec-05 19:28N 40°31' W 073°59'8 9.2
2016-Dec-05 18:33N 40°39' W 074°02'1 1.4
2016-Dec-05 17:33N 40°40' W 074°04'1 1.0
2016-Dec-05 16:33N 40°41' W 074°04'0 0.0
2016-Dec-05 15:33N 40°41' W 074°04'0 0.0
2016-Dec-05 14:33N 40°41' W 074°04'0 0.0
2016-Dec-05 13:33N 40°41' W 074°04'0 0.0
2016-Dec-05 12:33N 40°41' W 074°04'0 0.0
2016-Dec-05 11:33N 40°41' W 074°04'0 0.0
2016-Dec-05 10:33N 40°41' W 074°04'0 0.0
2016-Dec-05 09:33N 40°41' W 074°04'0 0.0
2016-Dec-05 08:33N 40°41' W 074°04'0 0.0
2016-Dec-05 07:33N 40°41' W 074°04'0 0.0
2016-Dec-05 06:33N 40°41' W 074°04'0 0.0
2016-Dec-05 05:33N 40°41' W 074°04'0 0.0
2016-Dec-05 04:33N 40°41' W 074°04'0 0.0
2016-Dec-05 03:33N 40°41' W 074°04'0 0.0
2016-Dec-05 02:33N 40°41' W 074°04'0 0.0
2016-Dec-05 01:33N 40°41' W 074°04'0 0.0
2016-Dec-05 00:33N 40°41' W 074°04'0 0.0
2016-Dec-04 23:33N 40°41' W 074°04'0 0.0
2016-Dec-04 22:33N 40°41' W 074°04'0 0.0
2016-Dec-04 21:33N 40°41' W 074°04'0 0.0
2016-Dec-04 20:33N 40°41' W 074°04'1 0.9
2016-Dec-04 19:34N 40°40' W 074°04'3 2.7
2016-Dec-04 18:33N 40°40' W 074°00'0 0.0
2016-Dec-04 17:33N 40°40' W 074°00'6 5.9
2016-Dec-04 16:33N 40°34' W 074°02'7 6.6
2016-Dec-04 15:33N 40°30' W 073°55'1 0.3
2016-Dec-04 11:27N 40°29' W 073°54'3 3.8
2016-Dec-04 10:32N 40°29' W 073°59'2 0.2
2016-Dec-03 23:31N 40°28' W 074°02'1 1.4
2016-Dec-03 22:33N 40°29' W 074°00'0 0.0
2016-Dec-03 21:33N 40°29' W 074°00'0 0.0
2016-Dec-03 20:32N 40°29' W 074°00'0 0.0
2016-Dec-03 19:23N 40°29' W 074°00'0 0.0
2016-Dec-03 17:25N 40°29' W 074°00'0 0.0
2016-Dec-03 15:29N 40°29' W 074°00'0 0.0
2016-Dec-03 14:32N 40°29' W 074°00'0 0.0
2016-Dec-03 13:32N 40°29' W 074°00'0 0.0
2016-Dec-03 12:33N 40°29' W 074°00'0 0.0
2016-Dec-03 11:33N 40°29' W 074°00'0 0.0
2016-Dec-03 10:33N 40°29' W 074°00'0 0.0
2016-Dec-03 09:33N 40°29' W 074°00'0 0.0
2016-Dec-03 08:33N 40°29' W 074°00'0 0.0
2016-Dec-03 07:32N 40°29' W 074°00'0 0.0
2016-Dec-03 06:28N 40°29' W 074°00'0 0.0
2016-Dec-03 05:31N 40°29' W 074°00'0 0.0
2016-Dec-03 04:33N 40°29' W 074°00'0 0.0
2016-Dec-03 03:32N 40°29' W 074°00'0 0.0
2016-Dec-03 02:32N 40°29' W 074°00'0 0.0
2016-Dec-03 01:33N 40°29' W 074°00'0 0.0
2016-Dec-03 00:31N 40°29' W 074°00'0 0.0
2016-Dec-02 23:33N 40°29' W 074°00'0 0.0
2016-Dec-02 22:33N 40°29' W 074°00'0 0.0
2016-Dec-02 21:33N 40°29' W 074°00'0 0.0
2016-Dec-02 20:33N 40°29' W 074°00'0 0.0
2016-Dec-02 19:33N 40°29' W 074°00'0 0.0
2016-Dec-02 14:14N 40°29' W 074°00'0 0.0
2016-Dec-02 13:33N 40°29' W 074°00'0 0.3
2016-Dec-02 12:33N 40°29' W 074°00'2 1.5
2016-Dec-02 11:18N 40°29' W 074°03'5 6.2
2016-Dec-02 10:33N 40°34' W 074°02'6 5.8
2016-Dec-02 09:33N 40°39' W 074°03'1 1.4
2016-Dec-02 08:33N 40°40' W 074°04'0 0.0
2016-Dec-02 07:33N 40°40' W 074°04'0 0.0
2016-Dec-02 06:33N 40°40' W 074°04'0 0.0
2016-Dec-02 05:33N 40°40' W 074°04'0 0.0
2016-Dec-02 04:33N 40°40' W 074°04'0 0.0
2016-Dec-02 03:33N 40°40' W 074°04'0 0.0
2016-Dec-02 02:33N 40°40' W 074°04'0 0.0
2016-Dec-02 01:33N 40°40' W 074°04'0 0.0
2016-Dec-02 00:33N 40°40' W 074°04'0 0.0
2016-Dec-01 23:33N 40°40' W 074°04'0 0.0
2016-Dec-01 22:33N 40°40' W 074°04'0 0.0
2016-Dec-01 21:33N 40°40' W 074°04'0 0.0
2016-Dec-01 20:33N 40°40' W 074°04'0 0.1
2016-Dec-01 19:33N 40°41' W 074°04'0 0.0
2016-Dec-01 18:33N 40°41' W 074°04'0 0.0
2016-Dec-01 17:33N 40°41' W 074°04'0 0.0
2016-Dec-01 16:33N 40°41' W 074°04'0 0.0
2016-Dec-01 15:33N 40°41' W 074°04'0 0.0
2016-Dec-01 14:33N 40°41' W 074°04'0 0.1
2016-Dec-01 13:33N 40°41' W 074°04'0 0.0
2016-Dec-01 12:33N 40°41' W 074°04'0 0.0
2016-Dec-01 11:33N 40°41' W 074°04'0 0.0
2016-Dec-01 10:33N 40°41' W 074°04'0 0.0
2016-Dec-01 09:33N 40°41' W 074°04'0 0.0
2016-Dec-01 08:33N 40°41' W 074°04'0 0.0
2016-Dec-01 07:33N 40°41' W 074°04'0 0.0
2016-Dec-01 06:33N 40°41' W 074°04'0 0.0
2016-Dec-01 05:33N 40°41' W 074°04'0 0.0
2016-Dec-01 04:33N 40°41' W 074°04'0 0.0
2016-Dec-01 03:33N 40°41' W 074°04'0 0.0
2016-Dec-01 02:33N 40°41' W 074°04'0 0.0
2016-Dec-01 01:33N 40°41' W 074°04'0 0.0
2016-Dec-01 00:33N 40°41' W 074°04'0 0.0
2016-Nov-30 23:32N 40°41' W 074°04'0 0.0
2016-Nov-30 22:33N 40°41' W 074°04'0 0.0
2016-Nov-30 21:33N 40°41' W 074°04'0 0.0
2016-Nov-30 20:33N 40°41' W 074°04'0 0.0
2016-Nov-30 19:33N 40°41' W 074°04'0 0.0
2016-Nov-30 18:33N 40°41' W 074°04'0 0.0
2016-Nov-30 17:33N 40°41' W 074°04'0 0.0
2016-Nov-30 16:33N 40°41' W 074°04'0 0.0
2016-Nov-30 15:33N 40°41' W 074°04'0 0.1
2016-Nov-30 14:33N 40°40' W 074°04'0 0.0
2016-Nov-30 13:33N 40°40' W 074°04'0 0.0
2016-Nov-30 12:33N 40°40' W 074°04'0 0.1
2016-Nov-30 11:33N 40°41' W 074°04'0 0.0
2016-Nov-30 10:33N 40°41' W 074°04'0 0.0
2016-Nov-30 09:33N 40°41' W 074°04'0 0.0
2016-Nov-30 08:33N 40°41' W 074°04'0 0.0
2016-Nov-30 07:33N 40°41' W 074°04'0 0.0
2016-Nov-30 06:33N 40°41' W 074°04'0 0.0
2016-Nov-30 05:33N 40°41' W 074°04'0 0.0
2016-Nov-30 04:33N 40°41' W 074°04'0 0.0
2016-Nov-30 03:33N 40°41' W 074°04'0 0.0
2016-Nov-30 02:33N 40°41' W 074°04'0 0.0
2016-Nov-30 01:33N 40°41' W 074°04'0 0.0
2016-Nov-30 00:33N 40°41' W 074°04'0 0.0
2016-Nov-29 23:33N 40°41' W 074°04'0 0.0
2016-Nov-29 22:33N 40°41' W 074°04'0 0.0
2016-Nov-29 21:33N 40°41' W 074°04'0 0.0
2016-Nov-29 20:33N 40°41' W 074°04'0 0.0
2016-Nov-29 19:33N 40°41' W 074°04'0 0.0
2016-Nov-29 18:33N 40°41' W 074°04'0 0.0
2016-Nov-29 17:33N 40°41' W 074°04'0 0.0
2016-Nov-29 16:33N 40°41' W 074°04'0 0.1
2016-Nov-29 15:33N 40°40' W 074°04'0 0.0
2016-Nov-29 14:33N 40°40' W 074°04'0 0.0
2016-Nov-29 13:33N 40°40' W 074°04'0 0.1
2016-Nov-29 12:33N 40°41' W 074°04'0 0.0
2016-Nov-29 11:33N 40°41' W 074°04'0 0.0
2016-Nov-29 10:33N 40°41' W 074°04'0 0.0
2016-Nov-29 09:33N 40°41' W 074°04'0 0.0
2016-Nov-29 08:33N 40°41' W 074°04'0 0.0
2016-Nov-29 07:33N 40°41' W 074°04'0 0.0
2016-Nov-29 06:33N 40°41' W 074°04'0 0.0
2016-Nov-29 05:33N 40°41' W 074°04'0 0.0
2016-Nov-29 04:33N 40°41' W 074°04'0 0.0
2016-Nov-29 03:33N 40°41' W 074°04'0 0.0
2016-Nov-29 02:33N 40°41' W 074°04'0 0.0
2016-Nov-29 01:33N 40°41' W 074°04'0 0.0
2016-Nov-29 00:33N 40°41' W 074°04'0 0.0
2016-Nov-28 23:33N 40°41' W 074°04'0 0.0
2016-Nov-28 22:33N 40°41' W 074°04'0 0.0
2016-Nov-28 21:33N 40°41' W 074°04'0 0.0
2016-Nov-28 20:33N 40°41' W 074°04'0 0.0
2016-Nov-28 19:33N 40°41' W 074°04'0 0.0
2016-Nov-28 18:33N 40°41' W 074°04'0 0.0
2016-Nov-28 17:33N 40°41' W 074°04'0 0.0
2016-Nov-28 16:33N 40°41' W 074°04'0 0.0
2016-Nov-28 15:33N 40°41' W 074°04'1 1.3
2016-Nov-28 14:33N 40°40' W 074°03'5 4.6
2016-Nov-28 13:33N 40°45' W 074°01'0 0.0
2016-Nov-28 12:33N 40°45' W 074°01'0 0.0
2016-Nov-28 11:33N 40°45' W 074°01'5 4.9
2016-Nov-28 10:33N 40°40' W 074°04'1 0.6
2016-Nov-28 09:33N 40°41' W 074°04'0 0.0
2016-Nov-28 08:33N 40°41' W 074°04'0 0.0
2016-Nov-28 07:33N 40°41' W 074°04'0 0.0
2016-Nov-28 06:33N 40°41' W 074°04'0 0.0
2016-Nov-28 05:33N 40°41' W 074°04'0 0.0
2016-Nov-28 04:33N 40°41' W 074°04'0 0.0
2016-Nov-28 03:33N 40°41' W 074°04'0 0.0
2016-Nov-28 02:33N 40°41' W 074°04'0 0.0
2016-Nov-28 01:33N 40°41' W 074°04'0 0.0
2016-Nov-28 00:33N 40°41' W 074°04'0 0.0
2016-Nov-27 23:33N 40°41' W 074°04'0 0.0
2016-Nov-27 22:33N 40°41' W 074°04'0 0.0
2016-Nov-27 21:33N 40°41' W 074°04'0 0.0
2016-Nov-27 20:33N 40°41' W 074°04'0 0.0
2016-Nov-27 19:33N 40°41' W 074°04'0 0.0
2016-Nov-27 18:33N 40°41' W 074°04'0 0.0
2016-Nov-27 17:33N 40°41' W 074°04'0 0.0
2016-Nov-27 16:33N 40°41' W 074°04'0 0.0
2016-Nov-27 15:33N 40°41' W 074°04'0 0.0
2016-Nov-27 14:33N 40°41' W 074°04'0 0.1
2016-Nov-27 13:33N 40°40' W 074°04'5 5.1
2016-Nov-27 12:33N 40°39' W 074°11'6 2.8
2016-Nov-27 10:20N 40°33' W 074°15'6 7.7
2016-Nov-27 09:33N 40°39' W 074°11'5 5.3
2016-Nov-27 08:33N 40°41' W 074°04'0 0.0
2016-Nov-27 07:33N 40°41' W 074°04'0 0.0
2016-Nov-27 06:33N 40°41' W 074°04'0 0.0
2016-Nov-27 05:33N 40°41' W 074°04'0 0.0
2016-Nov-27 04:33N 40°41' W 074°04'0 0.0
2016-Nov-27 03:33N 40°41' W 074°04'0 0.0
2016-Nov-27 02:33N 40°41' W 074°04'0 0.0
2016-Nov-27 01:33N 40°41' W 074°04'0 0.0
2016-Nov-27 00:33N 40°41' W 074°04'0 0.0
2016-Nov-26 23:33N 40°41' W 074°04'0 0.0
2016-Nov-26 22:33N 40°41' W 074°04'0 0.0
2016-Nov-26 21:33N 40°41' W 074°04'0 0.0
2016-Nov-26 20:33N 40°41' W 074°04'0 0.0
2016-Nov-26 19:33N 40°41' W 074°04'4 4.0
2016-Nov-26 18:33N 40°44' W 074°01'1 0.7
2016-Nov-26 17:33N 40°43' W 074°01'5 4.5
2016-Nov-26 16:33N 40°39' W 074°05'1 1.2
2016-Nov-26 15:33N 40°40' W 074°03'7 6.6
2016-Nov-26 14:33N 40°46' W 074°00'5 4.8
2016-Nov-26 13:33N 40°41' W 074°02'  
Track history (hours):
 
Tides and Currents Weather Stations Pressure Air Temp Water Temp Dewpoint Dewpoint Depression Visibility Wind Speed Wind Dir Waves Ship Positions

Alexandra

Owner: Weeks Marine, Inc., Cranford, NJ. More information available from US FCC via Universal Licensing System and Coast Guard Vessel Documentation Center.

Last reported at 2016-Dec-06 13:33 UTC. Time now 2016-Dec-06 14:15 UTC.
Position N 40°32' W 074°02'.

Length 37 m; draft 5 m.

Type: Tug. MMSI: 367161950.

Date/timePositionNaut miles runAvg speedWind from/ knotsBaromVisibWave heightAir tempDewpointWater temp
2016-Dec-06 13:33N 40°32' W 074°02'4 4.1
2016-Dec-06 12:31N 40°28' W 074°02'0 0.4
2016-Dec-06 11:33N 40°28' W 074°01'0 0.0
2016-Dec-06 10:31N 40°28' W 074°01'0 0.0
2016-Dec-06 09:33N 40°28' W 074°01'0 0.0
2016-Dec-06 08:33N 40°28' W 074°01'0 0.0
2016-Dec-06 07:33N 40°28' W 074°01'0 0.0
2016-Dec-06 05:04N 40°28' W 074°01'3 4.4
2016-Dec-06 04:26N 40°31' W 074°03'9 9.7
2016-Dec-06 03:33N 40°40' W 074°01'0 0.4
2016-Dec-06 02:33N 40°39' W 074°02'6 6.3
2016-Dec-06 01:33N 40°33' W 074°01'6 3.0
2016-Dec-05 23:27N 40°29' W 073°55'0 0.3
2016-Dec-05 21:32N 40°29' W 073°54'1 0.9
2016-Dec-05 20:27N 40°30' W 073°55'3 3.1
2016-Dec-05 19:28N 40°31' W 073°59'8 9.2
2016-Dec-05 18:33N 40°39' W 074°02'1 1.4
2016-Dec-05 17:33N 40°40' W 074°04'1 1.0
2016-Dec-05 16:33N 40°41' W 074°04'0 0.0
2016-Dec-05 15:33N 40°41' W 074°04'0 0.0
2016-Dec-05 14:33N 40°41' W 074°04'0 0.0
2016-Dec-05 13:33N 40°41' W 074°04'0 0.0
2016-Dec-05 12:33N 40°41' W 074°04'0 0.0
2016-Dec-05 11:33N 40°41' W 074°04'0 0.0
2016-Dec-05 10:33N 40°41' W 074°04'0 0.0
2016-Dec-05 09:33N 40°41' W 074°04'0 0.0
2016-Dec-05 08:33N 40°41' W 074°04'0 0.0
2016-Dec-05 07:33N 40°41' W 074°04'0 0.0
2016-Dec-05 06:33N 40°41' W 074°04'0 0.0
2016-Dec-05 05:33N 40°41' W 074°04'0 0.0
2016-Dec-05 04:33N 40°41' W 074°04'0 0.0
2016-Dec-05 03:33N 40°41' W 074°04'0 0.0
2016-Dec-05 02:33N 40°41' W 074°04'0 0.0
2016-Dec-05 01:33N 40°41' W 074°04'0 0.0
2016-Dec-05 00:33N 40°41' W 074°04'0 0.0
2016-Dec-04 23:33N 40°41' W 074°04'0 0.0
2016-Dec-04 22:33N 40°41' W 074°04'0 0.0
2016-Dec-04 21:33N 40°41' W 074°04'0 0.0
2016-Dec-04 20:33N 40°41' W 074°04'1 0.9
2016-Dec-04 19:34N 40°40' W 074°04'3 2.7
2016-Dec-04 18:33N 40°40' W 074°00'0 0.0
2016-Dec-04 17:33N 40°40' W 074°00'6 5.9
2016-Dec-04 16:33N 40°34' W 074°02'7 6.6
2016-Dec-04 15:33N 40°30' W 073°55'1 0.3
2016-Dec-04 11:27N 40°29' W 073°54'3 3.8
2016-Dec-04 10:32N 40°29' W 073°59'2 0.2
2016-Dec-03 23:31N 40°28' W 074°02'1 1.4
2016-Dec-03 22:33N 40°29' W 074°00'0 0.0
2016-Dec-03 21:33N 40°29' W 074°00'0 0.0
2016-Dec-03 20:32N 40°29' W 074°00'0 0.0
2016-Dec-03 19:23N 40°29' W 074°00'0 0.0
2016-Dec-03 17:25N 40°29' W 074°00'0 0.0
2016-Dec-03 15:29N 40°29' W 074°00'0 0.0
2016-Dec-03 14:32N 40°29' W 074°00'0 0.0
2016-Dec-03 13:32N 40°29' W 074°00'0 0.0
2016-Dec-03 12:33N 40°29' W 074°00'0 0.0
2016-Dec-03 11:33N 40°29' W 074°00'0 0.0
2016-Dec-03 10:33N 40°29' W 074°00'0 0.0
2016-Dec-03 09:33N 40°29' W 074°00'0 0.0
2016-Dec-03 08:33N 40°29' W 074°00'0 0.0
2016-Dec-03 07:32N 40°29' W 074°00'0 0.0
2016-Dec-03 06:28N 40°29' W 074°00'0 0.0
2016-Dec-03 05:31N 40°29' W 074°00'0 0.0
2016-Dec-03 04:33N 40°29' W 074°00'0 0.0
2016-Dec-03 03:32N 40°29' W 074°00'0 0.0
2016-Dec-03 02:32N 40°29' W 074°00'0 0.0
2016-Dec-03 01:33N 40°29' W 074°00'0 0.0
2016-Dec-03 00:31N 40°29' W 074°00'0 0.0
2016-Dec-02 23:33N 40°29' W 074°00'0 0.0
2016-Dec-02 22:33N 40°29' W 074°00'0 0.0
2016-Dec-02 21:33N 40°29' W 074°00'0 0.0
2016-Dec-02 20:33N 40°29' W 074°00'0 0.0
2016-Dec-02 19:33N 40°29' W 074°00'0 0.0
2016-Dec-02 14:14N 40°29' W 074°00'0 0.0
2016-Dec-02 13:33N 40°29' W 074°00'0 0.3
2016-Dec-02 12:33N 40°29' W 074°00'2 1.5
2016-Dec-02 11:18N 40°29' W 074°03'5 6.2
2016-Dec-02 10:33N 40°34' W 074°02'6 5.8
2016-Dec-02 09:33N 40°39' W 074°03'1 1.4
2016-Dec-02 08:33N 40°40' W 074°04'0 0.0
2016-Dec-02 07:33N 40°40' W 074°04'0 0.0
2016-Dec-02 06:33N 40°40' W 074°04'0 0.0
2016-Dec-02 05:33N 40°40' W 074°04'0 0.0
2016-Dec-02 04:33N 40°40' W 074°04'0 0.0
2016-Dec-02 03:33N 40°40' W 074°04'0 0.0
2016-Dec-02 02:33N 40°40' W 074°04'0 0.0
2016-Dec-02 01:33N 40°40' W 074°04'0 0.0
2016-Dec-02 00:33N 40°40' W 074°04'0 0.0
2016-Dec-01 23:33N 40°40' W 074°04'0 0.0
2016-Dec-01 22:33N 40°40' W 074°04'0 0.0
2016-Dec-01 21:33N 40°40' W 074°04'0 0.0
2016-Dec-01 20:33N 40°40' W 074°04'0 0.1
2016-Dec-01 19:33N 40°41' W 074°04'0 0.0
2016-Dec-01 18:33N 40°41' W 074°04'0 0.0
2016-Dec-01 17:33N 40°41' W 074°04'0 0.0
2016-Dec-01 16:33N 40°41' W 074°04'0 0.0
2016-Dec-01 15:33N 40°41' W 074°04'0 0.0
2016-Dec-01 14:33N 40°41' W 074°04'0 0.1
2016-Dec-01 13:33N 40°41' W 074°04'0 0.0
2016-Dec-01 12:33N 40°41' W 074°04'0 0.0
2016-Dec-01 11:33N 40°41' W 074°04'0 0.0
2016-Dec-01 10:33N 40°41' W 074°04'0 0.0
2016-Dec-01 09:33N 40°41' W 074°04'0 0.0
2016-Dec-01 08:33N 40°41' W 074°04'0 0.0
2016-Dec-01 07:33N 40°41' W 074°04'0 0.0
2016-Dec-01 06:33N 40°41' W 074°04'0 0.0
2016-Dec-01 05:33N 40°41' W 074°04'0 0.0
2016-Dec-01 04:33N 40°41' W 074°04'0 0.0
2016-Dec-01 03:33N 40°41' W 074°04'0 0.0
2016-Dec-01 02:33N 40°41' W 074°04'0 0.0
2016-Dec-01 01:33N 40°41' W 074°04'0 0.0
2016-Dec-01 00:33N 40°41' W 074°04'0 0.0
2016-Nov-30 23:32N 40°41' W 074°04'0 0.0
2016-Nov-30 22:33N 40°41' W 074°04'0 0.0
2016-Nov-30 21:33N 40°41' W 074°04'0 0.0
2016-Nov-30 20:33N 40°41' W 074°04'0 0.0
2016-Nov-30 19:33N 40°41' W 074°04'0 0.0
2016-Nov-30 18:33N 40°41' W 074°04'0 0.0
2016-Nov-30 17:33N 40°41' W 074°04'0 0.0
2016-Nov-30 16:33N 40°41' W 074°04'0 0.0
2016-Nov-30 15:33N 40°41' W 074°04'0 0.1
2016-Nov-30 14:33N 40°40' W 074°04'0 0.0
2016-Nov-30 13:33N 40°40' W 074°04'0 0.0
2016-Nov-30 12:33N 40°40' W 074°04'0 0.1
2016-Nov-30 11:33N 40°41' W 074°04'0 0.0
2016-Nov-30 10:33N 40°41' W 074°04'0 0.0
2016-Nov-30 09:33N 40°41' W 074°04'0 0.0
2016-Nov-30 08:33N 40°41' W 074°04'0 0.0
2016-Nov-30 07:33N 40°41' W 074°04'0 0.0
2016-Nov-30 06:33N 40°41' W 074°04'0 0.0
2016-Nov-30 05:33N 40°41' W 074°04'0 0.0
2016-Nov-30 04:33N 40°41' W 074°04'0 0.0
2016-Nov-30 03:33N 40°41' W 074°04'0 0.0
2016-Nov-30 02:33N 40°41' W 074°04'0 0.0
2016-Nov-30 01:33N 40°41' W 074°04'0 0.0
2016-Nov-30 00:33N 40°41' W 074°04'0 0.0
2016-Nov-29 23:33N 40°41' W 074°04'0 0.0
2016-Nov-29 22:33N 40°41' W 074°04'0 0.0
2016-Nov-29 21:33N 40°41' W 074°04'0 0.0
2016-Nov-29 20:33N 40°41' W 074°04'0 0.0
2016-Nov-29 19:33N 40°41' W 074°04'0 0.0
2016-Nov-29 18:33N 40°41' W 074°04'0 0.0
2016-Nov-29 17:33N 40°41' W 074°04'0 0.0
2016-Nov-29 16:33N 40°41' W 074°04'0 0.1
2016-Nov-29 15:33N 40°40' W 074°04'0 0.0
2016-Nov-29 14:33N 40°40' W 074°04'0 0.0
2016-Nov-29 13:33N 40°40' W 074°04'0 0.1
2016-Nov-29 12:33N 40°41' W 074°04'0 0.0
2016-Nov-29 11:33N 40°41' W 074°04'0 0.0
2016-Nov-29 10:33N 40°41' W 074°04'0 0.0
2016-Nov-29 09:33N 40°41' W 074°04'0 0.0
2016-Nov-29 08:33N 40°41' W 074°04'0 0.0
2016-Nov-29 07:33N 40°41' W 074°04'0 0.0
2016-Nov-29 06:33N 40°41' W 074°04'0 0.0
2016-Nov-29 05:33N 40°41' W 074°04'0 0.0
2016-Nov-29 04:33N 40°41' W 074°04'0 0.0
2016-Nov-29 03:33N 40°41' W 074°04'0 0.0
2016-Nov-29 02:33N 40°41' W 074°04'0 0.0
2016-Nov-29 01:33N 40°41' W 074°04'0 0.0
2016-Nov-29 00:33N 40°41' W 074°04'0 0.0
2016-Nov-28 23:33N 40°41' W 074°04'0 0.0
2016-Nov-28 22:33N 40°41' W 074°04'0 0.0
2016-Nov-28 21:33N 40°41' W 074°04'0 0.0
2016-Nov-28 20:33N 40°41' W 074°04'0 0.0
2016-Nov-28 19:33N 40°41' W 074°04'0 0.0
2016-Nov-28 18:33N 40°41' W 074°04'0 0.0
2016-Nov-28 17:33N 40°41' W 074°04'0 0.0
2016-Nov-28 16:33N 40°41' W 074°04'0 0.0
2016-Nov-28 15:33N 40°41' W 074°04'1 1.3
2016-Nov-28 14:33N 40°40' W 074°03'5 4.6
2016-Nov-28 13:33N 40°45' W 074°01'0 0.0
2016-Nov-28 12:33N 40°45' W 074°01'0 0.0
2016-Nov-28 11:33N 40°45' W 074°01'5 4.9
2016-Nov-28 10:33N 40°40' W 074°04'1 0.6
2016-Nov-28 09:33N 40°41' W 074°04'0 0.0
2016-Nov-28 08:33N 40°41' W 074°04'0 0.0
2016-Nov-28 07:33N 40°41' W 074°04'0 0.0
2016-Nov-28 06:33N 40°41' W 074°04'0 0.0
2016-Nov-28 05:33N 40°41' W 074°04'0 0.0
2016-Nov-28 04:33N 40°41' W 074°04'0 0.0
2016-Nov-28 03:33N 40°41' W 074°04'0 0.0
2016-Nov-28 02:33N 40°41' W 074°04'0 0.0
2016-Nov-28 01:33N 40°41' W 074°04'0 0.0
2016-Nov-28 00:33N 40°41' W 074°04'0 0.0
2016-Nov-27 23:33N 40°41' W 074°04'0 0.0
2016-Nov-27 22:33N 40°41' W 074°04'0 0.0
2016-Nov-27 21:33N 40°41' W 074°04'0 0.0
2016-Nov-27 20:33N 40°41' W 074°04'0 0.0
2016-Nov-27 19:33N 40°41' W 074°04'0 0.0
2016-Nov-27 18:33N 40°41' W 074°04'0 0.0
2016-Nov-27 17:33N 40°41' W 074°04'0 0.0
2016-Nov-27 16:33N 40°41' W 074°04'0 0.0
2016-Nov-27 15:33N 40°41' W 074°04'0 0.0
2016-Nov-27 14:33N 40°41' W 074°04'0 0.1
2016-Nov-27 13:33N 40°40' W 074°04'5 5.1
2016-Nov-27 12:33N 40°39' W 074°11'6 2.8
2016-Nov-27 10:20N 40°33' W 074°15'6 7.7
2016-Nov-27 09:33N 40°39' W 074°11'5 5.3
2016-Nov-27 08:33N 40°41' W 074°04'0 0.0
2016-Nov-27 07:33N 40°41' W 074°04'0 0.0
2016-Nov-27 06:33N 40°41' W 074°04'0 0.0
2016-Nov-27 05:33N 40°41' W 074°04'0 0.0
2016-Nov-27 04:33N 40°41' W 074°04'0 0.0
2016-Nov-27 03:33N 40°41' W 074°04'0 0.0
2016-Nov-27 02:33N 40°41' W 074°04'0 0.0
2016-Nov-27 01:33N 40°41' W 074°04'0 0.0
2016-Nov-27 00:33N 40°41' W 074°04'0 0.0
2016-Nov-26 23:33N 40°41' W 074°04'0 0.0
2016-Nov-26 22:33N 40°41' W 074°04'0 0.0
2016-Nov-26 21:33N 40°41' W 074°04'0 0.0
2016-Nov-26 20:33N 40°41' W 074°04'0 0.0
2016-Nov-26 19:33N 40°41' W 074°04'4 4.0
2016-Nov-26 18:33N 40°44' W 074°01'1 0.7
2016-Nov-26 17:33N 40°43' W 074°01'5 4.5
2016-Nov-26 16:33N 40°39' W 074°05'1 1.2
2016-Nov-26 15:33N 40°40' W 074°03'7 6.6
2016-Nov-26 14:33N 40°46' W 074°00'5 4.8
2016-Nov-26 13:33N 40°41' W 074°02'  

Dump ship's entire track history